sensor_id;sensor_type;location;lat;lon;timestamp;P1;durP1;ratioP1;P2;durP2;ratioP2
19113;SDS011;9689;51.052;13.772;2023-11-21T00:00:04;2.65;;;1.15;;
19113;SDS011;9689;51.052;13.772;2023-11-21T00:05:11;3.97;;;1.15;;
19113;SDS011;9689;51.052;13.772;2023-11-21T00:10:15;2.08;;;1.00;;
19113;SDS011;9689;51.052;13.772;2023-11-21T00:15:17;2.95;;;1.05;;
19113;SDS011;9689;51.052;13.772;2023-11-21T00:20:18;2.47;;;1.27;;
19113;SDS011;9689;51.052;13.772;2023-11-21T00:25:20;2.03;;;0.88;;
19113;SDS011;9689;51.052;13.772;2023-11-21T00:30:21;4.00;;;1.40;;
19113;SDS011;9689;51.052;13.772;2023-11-21T00:35:22;2.28;;;1.20;;
19113;SDS011;9689;51.052;13.772;2023-11-21T00:40:24;5.63;;;1.65;;
19113;SDS011;9689;51.052;13.772;2023-11-21T00:45:25;5.25;;;1.50;;
19113;SDS011;9689;51.052;13.772;2023-11-21T00:50:26;3.42;;;1.38;;
19113;SDS011;9689;51.052;13.772;2023-11-21T00:55:29;3.90;;;1.27;;
19113;SDS011;9689;51.052;13.772;2023-11-21T01:00:31;3.42;;;1.40;;
19113;SDS011;9689;51.052;13.772;2023-11-21T01:05:32;5.45;;;1.10;;
19113;SDS011;9689;51.052;13.772;2023-11-21T01:10:35;3.50;;;1.65;;
19113;SDS011;9689;51.052;13.772;2023-11-21T01:15:35;9.52;;;1.65;;
19113;SDS011;9689;51.052;13.772;2023-11-21T01:20:36;8.70;;;1.98;;
19113;SDS011;9689;51.052;13.772;2023-11-21T01:25:39;4.00;;;1.20;;
19113;SDS011;9689;51.052;13.772;2023-11-21T01:30:41;2.25;;;1.42;;
19113;SDS011;9689;51.052;13.772;2023-11-21T01:35:44;3.60;;;1.35;;
19113;SDS011;9689;51.052;13.772;2023-11-21T01:40:47;5.22;;;1.30;;
19113;SDS011;9689;51.052;13.772;2023-11-21T01:45:48;1.98;;;1.33;;
19113;SDS011;9689;51.052;13.772;2023-11-21T01:50:49;6.05;;;1.58;;
19113;SDS011;9689;51.052;13.772;2023-11-21T01:55:52;4.65;;;1.33;;
19113;SDS011;9689;51.052;13.772;2023-11-21T02:00:58;4.85;;;1.30;;
19113;SDS011;9689;51.052;13.772;2023-11-21T02:06:00;3.72;;;1.40;;
19113;SDS011;9689;51.052;13.772;2023-11-21T02:11:03;3.97;;;1.52;;
19113;SDS011;9689;51.052;13.772;2023-11-21T02:16:05;2.97;;;1.30;;
19113;SDS011;9689;51.052;13.772;2023-11-21T02:21:06;5.75;;;1.67;;
19113;SDS011;9689;51.052;13.772;2023-11-21T02:26:10;4.10;;;1.52;;
19113;SDS011;9689;51.052;13.772;2023-11-21T02:31:11;2.50;;;1.65;;
19113;SDS011;9689;51.052;13.772;2023-11-21T02:36:12;2.08;;;1.20;;
19113;SDS011;9689;51.052;13.772;2023-11-21T02:41:14;6.20;;;1.90;;
19113;SDS011;9689;51.052;13.772;2023-11-21T02:46:15;4.05;;;1.42;;
19113;SDS011;9689;51.052;13.772;2023-11-21T02:51:16;9.93;;;1.83;;
19113;SDS011;9689;51.052;13.772;2023-11-21T02:56:18;3.53;;;1.42;;
19113;SDS011;9689;51.052;13.772;2023-11-21T03:01:19;5.72;;;1.48;;
19113;SDS011;9689;51.052;13.772;2023-11-21T03:06:20;7.07;;;1.80;;
19113;SDS011;9689;51.052;13.772;2023-11-21T03:11:23;5.85;;;1.50;;
19113;SDS011;9689;51.052;13.772;2023-11-21T03:16:24;5.43;;;1.70;;
19113;SDS011;9689;51.052;13.772;2023-11-21T03:21:25;6.40;;;1.40;;
19113;SDS011;9689;51.052;13.772;2023-11-21T03:26:27;9.20;;;1.95;;
19113;SDS011;9689;51.052;13.772;2023-11-21T03:31:29;6.55;;;1.70;;
19113;SDS011;9689;51.052;13.772;2023-11-21T03:36:29;12.75;;;2.15;;
19113;SDS011;9689;51.052;13.772;2023-11-21T03:41:32;4.30;;;1.50;;
19113;SDS011;9689;51.052;13.772;2023-11-21T03:46:33;7.68;;;1.52;;
19113;SDS011;9689;51.052;13.772;2023-11-21T03:51:34;3.90;;;1.70;;
19113;SDS011;9689;51.052;13.772;2023-11-21T03:56:37;5.43;;;1.90;;
19113;SDS011;9689;51.052;13.772;2023-11-21T04:01:38;8.57;;;1.75;;
19113;SDS011;9689;51.052;13.772;2023-11-21T04:06:38;9.90;;;2.20;;
19113;SDS011;9689;51.052;13.772;2023-11-21T04:11:40;9.30;;;1.67;;
19113;SDS011;9689;51.052;13.772;2023-11-21T04:16:42;9.90;;;2.03;;
19113;SDS011;9689;51.052;13.772;2023-11-21T04:21:43;10.20;;;2.42;;
19113;SDS011;9689;51.052;13.772;2023-11-21T04:26:45;6.38;;;1.92;;
19113;SDS011;9689;51.052;13.772;2023-11-21T04:31:46;3.97;;;1.83;;
19113;SDS011;9689;51.052;13.772;2023-11-21T04:36:49;4.57;;;1.80;;
19113;SDS011;9689;51.052;13.772;2023-11-21T04:41:51;3.60;;;2.05;;
19113;SDS011;9689;51.052;13.772;2023-11-21T04:46:52;5.20;;;2.03;;
19113;SDS011;9689;51.052;13.772;2023-11-21T04:51:53;7.97;;;2.55;;
19113;SDS011;9689;51.052;13.772;2023-11-21T04:56:55;9.65;;;2.80;;
19113;SDS011;9689;51.052;13.772;2023-11-21T05:01:56;7.00;;;2.20;;
19113;SDS011;9689;51.052;13.772;2023-11-21T05:06:57;8.45;;;2.50;;
19113;SDS011;9689;51.052;13.772;2023-11-21T05:11:59;5.43;;;2.40;;
19113;SDS011;9689;51.052;13.772;2023-11-21T05:17:00;7.82;;;2.72;;
19113;SDS011;9689;51.052;13.772;2023-11-21T05:22:03;6.68;;;2.50;;
19113;SDS011;9689;51.052;13.772;2023-11-21T05:27:06;8.90;;;2.45;;
19113;SDS011;9689;51.052;13.772;2023-11-21T05:32:09;7.80;;;2.60;;
19113;SDS011;9689;51.052;13.772;2023-11-21T05:37:10;7.72;;;2.70;;
19113;SDS011;9689;51.052;13.772;2023-11-21T05:42:12;12.32;;;2.60;;
19113;SDS011;9689;51.052;13.772;2023-11-21T05:47:13;6.88;;;2.70;;
19113;SDS011;9689;51.052;13.772;2023-11-21T05:52:14;10.80;;;3.10;;
19113;SDS011;9689;51.052;13.772;2023-11-21T05:57:16;7.35;;;2.47;;
19113;SDS011;9689;51.052;13.772;2023-11-21T06:02:17;12.10;;;3.75;;
19113;SDS011;9689;51.052;13.772;2023-11-21T06:07:18;9.27;;;2.50;;
19113;SDS011;9689;51.052;13.772;2023-11-21T06:12:20;7.45;;;2.55;;
19113;SDS011;9689;51.052;13.772;2023-11-21T06:17:21;6.03;;;3.58;;
19113;SDS011;9689;51.052;13.772;2023-11-21T06:22:24;10.60;;;3.08;;
19113;SDS011;9689;51.052;13.772;2023-11-21T06:27:26;10.80;;;3.22;;
19113;SDS011;9689;51.052;13.772;2023-11-21T06:32:27;16.33;;;2.95;;
19113;SDS011;9689;51.052;13.772;2023-11-21T06:37:29;8.10;;;2.90;;
19113;SDS011;9689;51.052;13.772;2023-11-21T06:42:32;11.20;;;3.63;;
19113;SDS011;9689;51.052;13.772;2023-11-21T06:47:33;12.18;;;3.92;;
19113;SDS011;9689;51.052;13.772;2023-11-21T06:52:34;9.45;;;3.65;;
19113;SDS011;9689;51.052;13.772;2023-11-21T06:57:37;11.77;;;3.90;;
19113;SDS011;9689;51.052;13.772;2023-11-21T07:02:38;14.05;;;4.00;;
19113;SDS011;9689;51.052;13.772;2023-11-21T07:07:39;14.43;;;5.07;;
19113;SDS011;9689;51.052;13.772;2023-11-21T07:12:41;14.57;;;4.65;;
19113;SDS011;9689;51.052;13.772;2023-11-21T07:17:42;9.38;;;4.53;;
19113;SDS011;9689;51.052;13.772;2023-11-21T07:22:43;16.85;;;4.20;;
19113;SDS011;9689;51.052;13.772;2023-11-21T07:27:45;11.13;;;4.45;;
19113;SDS011;9689;51.052;13.772;2023-11-21T07:32:46;21.48;;;7.03;;
19113;SDS011;9689;51.052;13.772;2023-11-21T07:37:47;17.70;;;5.40;;
19113;SDS011;9689;51.052;13.772;2023-11-21T07:42:49;16.33;;;4.60;;
19113;SDS011;9689;51.052;13.772;2023-11-21T07:47:51;10.77;;;4.53;;
19113;SDS011;9689;51.052;13.772;2023-11-21T07:52:52;14.05;;;4.65;;
19113;SDS011;9689;51.052;13.772;2023-11-21T07:57:55;14.95;;;4.70;;
19113;SDS011;9689;51.052;13.772;2023-11-21T08:02:56;16.90;;;5.53;;
19113;SDS011;9689;51.052;13.772;2023-11-21T08:07:57;20.17;;;6.28;;
19113;SDS011;9689;51.052;13.772;2023-11-21T08:12:59;10.95;;;4.47;;
19113;SDS011;9689;51.052;13.772;2023-11-21T08:18:00;15.38;;;6.28;;
19113;SDS011;9689;51.052;13.772;2023-11-21T08:23:00;18.58;;;5.68;;
19113;SDS011;9689;51.052;13.772;2023-11-21T08:28:03;14.25;;;6.45;;
19113;SDS011;9689;51.052;13.772;2023-11-21T08:33:04;28.08;;;6.88;;
19113;SDS011;9689;51.052;13.772;2023-11-21T08:38:05;20.88;;;7.63;;
19113;SDS011;9689;51.052;13.772;2023-11-21T08:43:08;23.30;;;8.75;;
19113;SDS011;9689;51.052;13.772;2023-11-21T08:48:11;23.50;;;8.80;;
19113;SDS011;9689;51.052;13.772;2023-11-21T08:53:12;22.00;;;8.05;;
19113;SDS011;9689;51.052;13.772;2023-11-21T08:58:14;19.73;;;7.53;;
19113;SDS011;9689;51.052;13.772;2023-11-21T09:03:15;27.20;;;8.02;;
19113;SDS011;9689;51.052;13.772;2023-11-21T09:08:16;16.33;;;6.75;;
19113;SDS011;9689;51.052;13.772;2023-11-21T09:13:18;24.70;;;7.13;;
19113;SDS011;9689;51.052;13.772;2023-11-21T09:18:21;19.30;;;6.70;;
19113;SDS011;9689;51.052;13.772;2023-11-21T09:23:23;18.85;;;7.47;;
19113;SDS011;9689;51.052;13.772;2023-11-21T09:28:25;16.83;;;6.75;;
19113;SDS011;9689;51.052;13.772;2023-11-21T09:33:26;19.65;;;7.15;;
19113;SDS011;9689;51.052;13.772;2023-11-21T09:38:27;17.15;;;6.70;;
19113;SDS011;9689;51.052;13.772;2023-11-21T09:43:29;17.05;;;7.68;;
19113;SDS011;9689;51.052;13.772;2023-11-21T09:48:33;19.08;;;6.68;;
19113;SDS011;9689;51.052;13.772;2023-11-21T09:53:37;7.20;;;3.75;;
19113;SDS011;9689;51.052;13.772;2023-11-21T09:58:39;5.60;;;2.45;;
19113;SDS011;9689;51.052;13.772;2023-11-21T10:03:40;5.75;;;3.70;;
19113;SDS011;9689;51.052;13.772;2023-11-21T10:08:42;8.10;;;5.07;;
19113;SDS011;9689;51.052;13.772;2023-11-21T10:13:55;12.55;;;7.18;;
19113;SDS011;9689;51.052;13.772;2023-11-21T10:18:58;14.82;;;8.88;;
19113;SDS011;9689;51.052;13.772;2023-11-21T10:24:10;14.98;;;9.15;;
19113;SDS011;9689;51.052;13.772;2023-11-21T10:29:13;14.07;;;7.07;;
19113;SDS011;9689;51.052;13.772;2023-11-21T10:34:16;17.15;;;6.65;;
19113;SDS011;9689;51.052;13.772;2023-11-21T10:39:18;9.88;;;6.35;;
19113;SDS011;9689;51.052;13.772;2023-11-21T10:44:21;13.98;;;6.57;;
19113;SDS011;9689;51.052;13.772;2023-11-21T10:49:24;12.93;;;7.38;;
19113;SDS011;9689;51.052;13.772;2023-11-21T10:54:26;16.50;;;7.55;;
19113;SDS011;9689;51.052;13.772;2023-11-21T10:59:29;15.88;;;8.02;;
19113;SDS011;9689;51.052;13.772;2023-11-21T11:04:32;17.20;;;7.63;;
19113;SDS011;9689;51.052;13.772;2023-11-21T11:09:37;12.93;;;5.70;;
19113;SDS011;9689;51.052;13.772;2023-11-21T11:14:41;13.43;;;5.50;;
19113;SDS011;9689;51.052;13.772;2023-11-21T11:19:43;12.77;;;6.30;;
19113;SDS011;9689;51.052;13.772;2023-11-21T11:24:49;10.27;;;5.45;;
19113;SDS011;9689;51.052;13.772;2023-11-21T11:30:09;12.32;;;5.78;;
19113;SDS011;9689;51.052;13.772;2023-11-21T11:35:17;13.48;;;5.75;;
19113;SDS011;9689;51.052;13.772;2023-11-21T11:40:38;9.80;;;4.70;;
19113;SDS011;9689;51.052;13.772;2023-11-21T11:45:42;13.93;;;4.75;;
19113;SDS011;9689;51.052;13.772;2023-11-21T11:51:04;9.48;;;5.55;;
19113;SDS011;9689;51.052;13.772;2023-11-21T11:56:27;11.93;;;6.38;;
19113;SDS011;9689;51.052;13.772;2023-11-21T12:01:32;11.95;;;6.57;;
19113;SDS011;9689;51.052;13.772;2023-11-21T12:06:34;13.32;;;5.90;;
19113;SDS011;9689;51.052;13.772;2023-11-21T12:11:36;11.07;;;6.80;;
19113;SDS011;9689;51.052;13.772;2023-11-21T12:16:38;10.50;;;5.93;;
19113;SDS011;9689;51.052;13.772;2023-11-21T12:21:39;11.95;;;5.90;;
19113;SDS011;9689;51.052;13.772;2023-11-21T12:26:41;13.48;;;6.20;;
19113;SDS011;9689;51.052;13.772;2023-11-21T12:31:45;9.18;;;5.35;;
19113;SDS011;9689;51.052;13.772;2023-11-21T12:36:46;11.88;;;6.25;;
19113;SDS011;9689;51.052;13.772;2023-11-21T12:41:48;11.98;;;6.53;;
19113;SDS011;9689;51.052;13.772;2023-11-21T12:46:52;14.20;;;8.07;;
19113;SDS011;9689;51.052;13.772;2023-11-21T12:51:52;14.82;;;8.02;;
19113;SDS011;9689;51.052;13.772;2023-11-21T12:56:53;16.17;;;7.47;;
19113;SDS011;9689;51.052;13.772;2023-11-21T13:01:55;16.00;;;7.07;;
19113;SDS011;9689;51.052;13.772;2023-11-21T13:07:02;18.10;;;8.30;;
19113;SDS011;9689;51.052;13.772;2023-11-21T13:12:06;15.05;;;8.50;;
19113;SDS011;9689;51.052;13.772;2023-11-21T13:17:10;19.88;;;10.13;;
19113;SDS011;9689;51.052;13.772;2023-11-21T13:22:12;17.25;;;10.15;;
19113;SDS011;9689;51.052;13.772;2023-11-21T13:27:12;16.35;;;9.40;;
19113;SDS011;9689;51.052;13.772;2023-11-21T13:32:16;14.52;;;9.40;;
19113;SDS011;9689;51.052;13.772;2023-11-21T13:37:20;16.98;;;9.63;;
19113;SDS011;9689;51.052;13.772;2023-11-21T13:42:21;18.83;;;10.05;;
19113;SDS011;9689;51.052;13.772;2023-11-21T13:47:26;23.08;;;11.00;;
19113;SDS011;9689;51.052;13.772;2023-11-21T13:52:30;24.05;;;11.27;;
19113;SDS011;9689;51.052;13.772;2023-11-21T13:57:33;23.98;;;11.75;;
19113;SDS011;9689;51.052;13.772;2023-11-21T14:02:35;25.73;;;10.90;;
19113;SDS011;9689;51.052;13.772;2023-11-21T14:07:42;28.25;;;10.68;;
19113;SDS011;9689;51.052;13.772;2023-11-21T14:12:47;21.17;;;9.07;;
19113;SDS011;9689;51.052;13.772;2023-11-21T14:17:49;18.88;;;8.07;;
19113;SDS011;9689;51.052;13.772;2023-11-21T14:22:50;22.05;;;9.18;;
19113;SDS011;9689;51.052;13.772;2023-11-21T14:27:51;20.80;;;8.63;;
19113;SDS011;9689;51.052;13.772;2023-11-21T14:32:53;20.05;;;8.68;;
19113;SDS011;9689;51.052;13.772;2023-11-21T14:37:54;26.40;;;9.98;;
19113;SDS011;9689;51.052;13.772;2023-11-21T14:42:56;21.17;;;9.15;;
19113;SDS011;9689;51.052;13.772;2023-11-21T14:47:58;17.95;;;8.90;;
19113;SDS011;9689;51.052;13.772;2023-11-21T14:53:05;18.60;;;7.95;;
19113;SDS011;9689;51.052;13.772;2023-11-21T14:58:07;16.05;;;7.95;;
19113;SDS011;9689;51.052;13.772;2023-11-21T15:03:13;17.05;;;8.93;;
19113;SDS011;9689;51.052;13.772;2023-11-21T15:08:33;13.27;;;5.53;;
19113;SDS011;9689;51.052;13.772;2023-11-21T15:13:35;9.60;;;4.95;;
19113;SDS011;9689;51.052;13.772;2023-11-21T15:18:38;10.73;;;4.90;;
19113;SDS011;9689;51.052;13.772;2023-11-21T15:23:38;10.00;;;4.60;;
19113;SDS011;9689;51.052;13.772;2023-11-21T15:28:41;9.82;;;5.30;;
19113;SDS011;9689;51.052;13.772;2023-11-21T15:33:43;9.02;;;5.10;;
19113;SDS011;9689;51.052;13.772;2023-11-21T15:38:44;9.38;;;4.90;;
19113;SDS011;9689;51.052;13.772;2023-11-21T15:43:45;13.23;;;5.93;;
19113;SDS011;9689;51.052;13.772;2023-11-21T15:48:49;12.05;;;6.18;;
19113;SDS011;9689;51.052;13.772;2023-11-21T15:53:53;14.70;;;6.28;;
19113;SDS011;9689;51.052;13.772;2023-11-21T15:58:54;9.52;;;5.68;;
19113;SDS011;9689;51.052;13.772;2023-11-21T16:03:57;12.18;;;5.75;;
19113;SDS011;9689;51.052;13.772;2023-11-21T16:09:00;12.35;;;5.72;;
19113;SDS011;9689;51.052;13.772;2023-11-21T16:14:00;9.65;;;6.18;;
19113;SDS011;9689;51.052;13.772;2023-11-21T16:19:03;13.55;;;5.78;;
19113;SDS011;9689;51.052;13.772;2023-11-21T16:24:04;12.77;;;6.90;;
19113;SDS011;9689;51.052;13.772;2023-11-21T16:29:05;9.45;;;5.35;;
19113;SDS011;9689;51.052;13.772;2023-11-21T16:34:12;10.32;;;3.55;;
19113;SDS011;9689;51.052;13.772;2023-11-21T16:39:19;5.90;;;3.67;;
19113;SDS011;9689;51.052;13.772;2023-11-21T16:44:21;5.38;;;3.40;;
19113;SDS011;9689;51.052;13.772;2023-11-21T16:49:23;6.32;;;3.40;;
19113;SDS011;9689;51.052;13.772;2023-11-21T16:54:26;6.68;;;2.50;;
19113;SDS011;9689;51.052;13.772;2023-11-21T16:59:27;3.15;;;1.80;;
19113;SDS011;9689;51.052;13.772;2023-11-21T17:04:29;3.40;;;1.25;;
19113;SDS011;9689;51.052;13.772;2023-11-21T17:09:33;3.30;;;1.98;;
19113;SDS011;9689;51.052;13.772;2023-11-21T17:14:34;3.35;;;1.88;;
19113;SDS011;9689;51.052;13.772;2023-11-21T17:19:36;3.80;;;2.03;;
19113;SDS011;9689;51.052;13.772;2023-11-21T17:24:41;3.35;;;2.03;;
19113;SDS011;9689;51.052;13.772;2023-11-21T17:29:43;3.47;;;2.40;;
19113;SDS011;9689;51.052;13.772;2023-11-21T17:34:46;4.57;;;2.28;;
19113;SDS011;9689;51.052;13.772;2023-11-21T17:39:47;4.20;;;2.83;;
19113;SDS011;9689;51.052;13.772;2023-11-21T17:44:48;4.18;;;2.55;;
19113;SDS011;9689;51.052;13.772;2023-11-21T17:49:51;4.97;;;3.03;;
19113;SDS011;9689;51.052;13.772;2023-11-21T17:54:52;6.50;;;3.25;;
19113;SDS011;9689;51.052;13.772;2023-11-21T17:59:53;4.95;;;3.00;;
19113;SDS011;9689;51.052;13.772;2023-11-21T18:04:55;4.03;;;2.95;;
19113;SDS011;9689;51.052;13.772;2023-11-21T18:09:59;5.10;;;2.95;;
19113;SDS011;9689;51.052;13.772;2023-11-21T18:15:00;4.03;;;2.65;;
19113;SDS011;9689;51.052;13.772;2023-11-21T18:20:02;3.55;;;2.30;;
19113;SDS011;9689;51.052;13.772;2023-11-21T18:25:05;5.35;;;3.15;;
19113;SDS011;9689;51.052;13.772;2023-11-21T18:30:06;7.07;;;2.95;;
19113;SDS011;9689;51.052;13.772;2023-11-21T18:35:09;9.23;;;2.47;;
19113;SDS011;9689;51.052;13.772;2023-11-21T18:40:10;3.28;;;2.10;;
19113;SDS011;9689;51.052;13.772;2023-11-21T18:45:12;3.42;;;2.17;;
19113;SDS011;9689;51.052;13.772;2023-11-21T18:50:14;2.33;;;1.58;;
19113;SDS011;9689;51.052;13.772;2023-11-21T18:55:17;7.18;;;2.28;;
19113;SDS011;9689;51.052;13.772;2023-11-21T19:00:19;2.65;;;1.83;;
19113;SDS011;9689;51.052;13.772;2023-11-21T19:05:21;2.15;;;1.77;;
19113;SDS011;9689;51.052;13.772;2023-11-21T19:10:22;2.55;;;1.85;;
19113;SDS011;9689;51.052;13.772;2023-11-21T19:15:26;2.20;;;1.58;;
19113;SDS011;9689;51.052;13.772;2023-11-21T19:20:29;2.95;;;1.88;;
19113;SDS011;9689;51.052;13.772;2023-11-21T19:25:31;5.13;;;1.50;;
19113;SDS011;9689;51.052;13.772;2023-11-21T19:30:32;2.50;;;1.70;;
19113;SDS011;9689;51.052;13.772;2023-11-21T19:35:37;3.05;;;1.98;;
19113;SDS011;9689;51.052;13.772;2023-11-21T19:40:40;1.77;;;1.50;;
19113;SDS011;9689;51.052;13.772;2023-11-21T19:45:42;2.75;;;2.13;;
19113;SDS011;9689;51.052;13.772;2023-11-21T19:50:45;3.63;;;1.58;;
19113;SDS011;9689;51.052;13.772;2023-11-21T19:55:48;3.05;;;2.00;;
19113;SDS011;9689;51.052;13.772;2023-11-21T20:00:49;4.07;;;2.00;;
19113;SDS011;9689;51.052;13.772;2023-11-21T20:05:52;4.05;;;2.47;;
19113;SDS011;9689;51.052;13.772;2023-11-21T20:10:52;5.38;;;2.63;;
19113;SDS011;9689;51.052;13.772;2023-11-21T20:15:53;4.38;;;2.30;;
19113;SDS011;9689;51.052;13.772;2023-11-21T20:20:56;4.00;;;2.35;;
19113;SDS011;9689;51.052;13.772;2023-11-21T20:25:57;4.00;;;2.72;;
19113;SDS011;9689;51.052;13.772;2023-11-21T20:30:58;6.70;;;3.20;;
19113;SDS011;9689;51.052;13.772;2023-11-21T20:36:00;5.72;;;2.65;;
19113;SDS011;9689;51.052;13.772;2023-11-21T20:41:01;6.72;;;3.28;;
19113;SDS011;9689;51.052;13.772;2023-11-21T20:46:04;6.07;;;3.03;;
19113;SDS011;9689;51.052;13.772;2023-11-21T20:51:06;5.00;;;2.67;;
19113;SDS011;9689;51.052;13.772;2023-11-21T20:56:08;4.93;;;2.70;;
19113;SDS011;9689;51.052;13.772;2023-11-21T21:01:09;8.32;;;4.32;;
19113;SDS011;9689;51.052;13.772;2023-11-21T21:06:12;4.65;;;3.00;;
19113;SDS011;9689;51.052;13.772;2023-11-21T21:11:16;7.10;;;3.83;;
19113;SDS011;9689;51.052;13.772;2023-11-21T21:16:19;6.97;;;4.38;;
19113;SDS011;9689;51.052;13.772;2023-11-21T21:21:26;8.73;;;5.40;;
19113;SDS011;9689;51.052;13.772;2023-11-21T21:26:31;11.65;;;4.72;;
19113;SDS011;9689;51.052;13.772;2023-11-21T21:31:34;8.60;;;5.07;;
19113;SDS011;9689;51.052;13.772;2023-11-21T21:36:37;9.63;;;5.80;;
19113;SDS011;9689;51.052;13.772;2023-11-21T21:41:41;9.00;;;5.82;;
19113;SDS011;9689;51.052;13.772;2023-11-21T21:46:42;8.95;;;5.93;;
19113;SDS011;9689;51.052;13.772;2023-11-21T21:51:45;10.23;;;6.13;;
19113;SDS011;9689;51.052;13.772;2023-11-21T21:56:46;10.38;;;6.72;;
19113;SDS011;9689;51.052;13.772;2023-11-21T22:01:47;9.70;;;6.50;;
19113;SDS011;9689;51.052;13.772;2023-11-21T22:06:49;10.40;;;6.38;;
19113;SDS011;9689;51.052;13.772;2023-11-21T22:11:50;12.48;;;7.05;;
19113;SDS011;9689;51.052;13.772;2023-11-21T22:16:53;13.73;;;7.80;;
19113;SDS011;9689;51.052;13.772;2023-11-21T22:21:55;13.45;;;7.97;;
19113;SDS011;9689;51.052;13.772;2023-11-21T22:26:56;10.20;;;7.07;;
19113;SDS011;9689;51.052;13.772;2023-11-21T22:31:56;10.82;;;7.47;;
19113;SDS011;9689;51.052;13.772;2023-11-21T22:36:59;17.13;;;8.10;;
19113;SDS011;9689;51.052;13.772;2023-11-21T22:41:59;16.30;;;9.30;;
19113;SDS011;9689;51.052;13.772;2023-11-21T22:47:00;13.48;;;8.40;;
19113;SDS011;9689;51.052;13.772;2023-11-21T22:52:05;12.05;;;7.85;;
19113;SDS011;9689;51.052;13.772;2023-11-21T22:57:06;15.60;;;8.75;;
19113;SDS011;9689;51.052;13.772;2023-11-21T23:02:07;15.32;;;9.35;;
19113;SDS011;9689;51.052;13.772;2023-11-21T23:07:11;17.25;;;9.23;;
19113;SDS011;9689;51.052;13.772;2023-11-21T23:12:12;19.48;;;10.57;;
19113;SDS011;9689;51.052;13.772;2023-11-21T23:17:13;17.15;;;10.00;;
19113;SDS011;9689;51.052;13.772;2023-11-21T23:22:15;18.40;;;10.52;;
19113;SDS011;9689;51.052;13.772;2023-11-21T23:27:16;19.08;;;10.18;;
19113;SDS011;9689;51.052;13.772;2023-11-21T23:32:16;16.65;;;9.60;;
19113;SDS011;9689;51.052;13.772;2023-11-21T23:37:20;16.15;;;8.88;;
19113;SDS011;9689;51.052;13.772;2023-11-21T23:42:21;18.50;;;10.20;;
19113;SDS011;9689;51.052;13.772;2023-11-21T23:47:22;19.55;;;10.38;;
19113;SDS011;9689;51.052;13.772;2023-11-21T23:52:24;20.48;;;11.10;;
19113;SDS011;9689;51.052;13.772;2023-11-21T23:57:26;21.00;;;11.27;;
